• Join FlightAware (Why Join?)
  • Login
  • US Flag 
03:10AM EDT


 

Airport Tracker/Info


-or-


 

Live Flight TrackerFlight Track Log ✈ ASQ6105 ✈ 20-Jul-2013 ✈ KBNA - KIAD

Flight Track Log - Related Links

Times and Time Zones

All times are in EDT time to prevent confusion due to time zone crossing. See the ASQ6105 flight status page for this flight to view local times or setup timezone preferences in your user account.

Time Position Orientation Groundspeed Altitude Reporting Facility
EDT Latitude Longitude Course Direction KTS MPH feet Rate Location/Type
03:44PM 36.1167 -86.6833 64° Northeast 156 180 1,100  Level Nashville TRACON
03:45PM 36.0833 -86.6500 141° Southeast 202 232 3,200 1,500 Climbing Nashville TRACON
03:46PM 36.0667 -86.5833 107° East 270 311 4,100 1,140 Climbing Nashville TRACON
03:47PM 36.1000 -86.4833 68° East 269 310 5,900 1,740 Climbing Nashville TRACON
03:48PM 36.1926 -86.1189 80° East  Level FlightAware Approximate
03:49PM 36.2310 -85.9892 64° Northeast  Level FlightAware Approximate
03:49PM 36.1250 -86.3508 77° East 286 329 9,100  Level Memphis Center
03:50PM 36.1511 -86.2544 71° East 286 329 10,900 1,260 Climbing Memphis Center
03:51PM 36.1831 -86.1475 70° East 311 358 11,700 1,020 Climbing Memphis Center
03:52PM 36.2228 -86.0322 67° East 346 398 13,000 1,320 Climbing Memphis Center
03:53PM 36.2625 -85.9144 67° East 359 413 14,400 1,260 Climbing Memphis Center
03:53PM 36.2858 -85.8558 64° Northeast 373 429 15,000 420 Climbing Indianapolis Center
03:54PM 36.3303 -85.7214 68° East 384 442 15,100  Climbing Indianapolis Center
03:56PM 36.3742 -85.5903 67° East 402 463 15,100 240 Level Indianapolis Center
03:57PM 36.4189 -85.4592 67° East 409 471 15,600 1,020 Climbing Indianapolis Center
03:58PM 36.4631 -85.3314 67° East 401 461 17,200 1,260 Climbing Indianapolis Center
03:59PM 36.5036 -85.2075 68° East 388 447 18,300 1,080 Climbing Indianapolis Center
04:00PM 36.5456 -85.0811 68° East 392 451 19,500 1,140 Climbing Indianapolis Center
04:01PM 36.5881 -84.9542 67° East 395 455 20,700 1,140 Climbing Indianapolis Center
04:02PM 36.6311 -84.8253 67° East 400 460 21,900 1,140 Climbing Indianapolis Center
04:03PM 36.6819 -84.6692 68° East 404 465 23,100 1,020 Climbing Indianapolis Center
04:04PM 36.7256 -84.5364 68° East 412 474 24,100 840 Climbing Indianapolis Center
04:05PM 36.7650 -84.4197 67° East 416 479 24,900 960 Climbing Indianapolis Center
04:06PM 36.8150 -84.2625 68° East 417 480 26,100 1,080 Climbing Indianapolis Center
04:07PM 36.8597 -84.1272 68° East 420 483 27,100 960 Climbing Indianapolis Center
04:08PM 36.9028 -83.9917 68° East 419 482 28,100 960 Climbing Indianapolis Center
04:09PM 36.9467 -83.8553 68° East 422 486 29,100 960 Climbing Indianapolis Center
04:10PM 36.9919 -83.7181 68° East 425 489 30,100 960 Climbing Indianapolis Center
04:11PM 37.0358 -83.5803 68° East 425 489 31,100 960 Climbing Indianapolis Center
04:12PM 37.0792 -83.4408 69° East 427 491 32,100 900 Climbing Indianapolis Center
04:13PM 37.1239 -83.2994 68° East 431 496 33,000 420 Climbing Indianapolis Center
04:14PM 37.1706 -83.1519 68° East 445 512 33,000  Level Indianapolis Center
04:15PM 37.2189 -82.9956 69° East 467 537 33,000  Level Indianapolis Center
04:16PM 37.2681 -82.8367 69° East 480 552 33,000  Level Indianapolis Center
04:17PM 37.3161 -82.6803 69° East 478 550 33,000  Level Indianapolis Center
04:18PM 37.3639 -82.5267 69° East 471 542 33,000  Level Indianapolis Center
04:19PM 37.4111 -82.3739 69° East 467 537 33,000  Level Indianapolis Center
04:20PM 37.4572 -82.2186 69° East 471 542 33,000  Level Indianapolis Center
04:21PM 37.5125 -82.0364 69° East 476 548 33,000  Level Indianapolis Center
04:22PM 37.5581 -81.8819 70° East 473 544 33,000  Level Indianapolis Center
04:23PM 37.6036 -81.7286 69° East 467 537 33,000  Level Indianapolis Center
04:24PM 37.6492 -81.5728 70° East 471 542 33,000  Level Indianapolis Center
04:25PM 37.6947 -81.4206 69° East 470 541 33,000  Level Indianapolis Center
04:26PM 37.7392 -81.2681 70° East 473 544 33,000  Level Indianapolis Center
04:27PM 37.7833 -81.1169 70° East 473 544 33,000  Level Indianapolis Center
04:28PM 37.8425 -80.9475 66° East 473 544 33,000  Level Indianapolis Center
04:29PM 37.8961 -80.7969 66° East 472 543 33,000  Level Indianapolis Center
04:30PM 37.9578 -80.6506 62° Northeast 474 545 33,000 -360 Level Indianapolis Center
04:31PM 38.0050 -80.5753 51° Northeast 462 532 32,500 -1,320 Descending Washington Center
04:32PM 38.0836 -80.4381 54° Northeast 467 537 31,000 -1,740 Descending Washington Center
04:33PM 38.1433 -80.3047 60° Northeast 467 537 29,100 -1,680 Descending Washington Center
04:34PM 38.2114 -80.1583 59° Northeast 473 544 27,700 -1,560 Descending Washington Center
04:35PM 38.2775 -80.0089 61° Northeast 473 544 26,100 -1,680 Descending Washington Center
04:36PM 38.3436 -79.8567 61° Northeast 473 544 24,500 -1,080 Descending Washington Center
04:37PM 38.4050 -79.7064 62° Northeast 473 544 24,000 -300 Descending Washington Center
04:38PM 38.4711 -79.5431 63° Northeast 468 539 24,000  Level Washington Center
04:39PM 38.5281 -79.3922 64° Northeast 463 533 24,000 -300 Level Washington Center
04:40PM 38.5789 -79.2356 67° East 463 533 23,500 -1,380 Descending Washington Center
04:41PM 38.6206 -79.0914 70° East 471 542 21,200 -2,700 Descending Washington Center
04:42PM 38.6583 -78.9414 72° East 457 526 18,200 -3,000 Descending Washington Center
04:43PM 38.6750 -78.7908 82° East 443 510 15,300 -2,700 Descending Washington Center
04:44PM 38.6933 -78.6478 81° East 421 484 12,800 -2,100 Descending Washington Center
04:45PM 38.7111 -78.5103 81° East 403 464 11,100 -960 Descending Washington Center
04:46PM 38.7369 -78.3889 75° East 378 435 11,000 -540 Descending Washington Center
04:47PM 38.8078 -78.3089 41° Northeast 327 376 10,100 -540 Descending Washington Center
04:48PM 38.8806 -78.2236 42° Northeast 332 382 10,000 -60 Descending Washington Center
04:49PM 38.9575 -78.1356 42° Northeast 349 402 10,000 -240 Level Washington Center
04:50PM 39.0258 -78.0550 42° Northeast 349 402 9,600 -1,020 Descending Washington Center
04:51PM 39.0856 -77.9822 43° Northeast 318 366 8,100 -1,500 Descending Washington Center
04:52PM 39.1411 -77.9092 46° Northeast 291 335 6,600 -1,380 Descending Washington Center
04:53PM 39.1947 -77.8358 47° Northeast 281 323 5,400 -780 Descending Washington Center
04:54PM 39.1833 -77.6333 94° East 280 322 4,600 -540 Descending Potomac TRACON
04:55PM 39.1667 -77.5667 108° East 255 293 4,000 -720 Descending Potomac TRACON
04:56PM 39.1500 -77.5000 108° East 212 244 3,300 -600 Descending Potomac TRACON
04:57PM 39.1000 -77.4500 142° Southeast 198 228 2,800 -540 Descending Potomac TRACON